CFMGP CYQB-CYRC
Flight info
| Callsign | CFMGP |
|---|---|
| Flight time | 0h 30m |
| Altitude | 17000 |
| Route | OTPUT IGSAS |
| Aircraft | B350/L-SBGRWY/S |
Departure
| Time | 2026-04-29 12:38 |
|---|---|
| Airport | Quebec Jean Lesage International Airport (CYQB) |
Arrival
| Time | 2026-04-29 13:09 |
|---|---|
| Airport | Chicoutimi/Saint-Honoré Aerodrome (CYRC) |
| Time | Latitude | Longitude | Altitude | Speed | Heading |
|---|---|---|---|---|---|
| 2026-04-29 12:20 | 46.79001 | -71.38413 | 237 ft | 0 kts | 8° |
| 2026-04-29 12:27 | 46.78996 | -71.38362 | 249 ft | 0 kts | 3° |
| 2026-04-29 12:33 | 46.78997 | -71.38363 | 249 ft | 1 kts | 344° |
| 2026-04-29 12:33 | 46.78982 | -71.38380 | 249 ft | 6 kts | 194° |
| 2026-04-29 12:33 | 46.78942 | -71.38402 | 249 ft | 3 kts | 237° |
| 2026-04-29 12:33 | 46.78942 | -71.38424 | 249 ft | 8 kts | 279° |
| 2026-04-29 12:34 | 46.78961 | -71.38538 | 249 ft | 11 kts | 310° |
| 2026-04-29 12:34 | 46.79029 | -71.38599 | 249 ft | 12 kts | 330° |
| 2026-04-29 12:34 | 46.79108 | -71.38618 | 249 ft | 12 kts | 7° |
| 2026-04-29 12:34 | 46.79195 | -71.38594 | 249 ft | 13 kts | 11° |
| 2026-04-29 12:35 | 46.79289 | -71.38569 | 249 ft | 14 kts | 10° |
| 2026-04-29 12:35 | 46.79383 | -71.38522 | 249 ft | 15 kts | 42° |
| 2026-04-29 12:35 | 46.79459 | -71.38414 | 249 ft | 16 kts | 45° |
| 2026-04-29 12:35 | 46.79541 | -71.38309 | 249 ft | 16 kts | 17° |
| 2026-04-29 12:36 | 46.79629 | -71.38231 | 249 ft | 15 kts | 43° |
| 2026-04-29 12:36 | 46.79699 | -71.38129 | 249 ft | 14 kts | 44° |
| 2026-04-29 12:36 | 46.79769 | -71.38047 | 249 ft | 12 kts | 11° |
| 2026-04-29 12:36 | 46.79851 | -71.38045 | 249 ft | 11 kts | 2° |
| 2026-04-29 12:37 | 46.79928 | -71.38045 | 249 ft | 11 kts | 348° |
| 2026-04-29 12:37 | 46.79983 | -71.38122 | 249 ft | 9 kts | 259° |
| 2026-04-29 12:37 | 46.79974 | -71.38144 | 249 ft | 0 kts | 225° |
| 2026-04-29 12:37 | 46.79867 | -71.38297 | 249 ft | 63 kts | 224° |
| 2026-04-29 12:38 | 46.79387 | -71.38983 | 304 ft | 120 kts | 224° |
| 2026-04-29 12:38 | 46.78696 | -71.39981 | 419 ft | 154 kts | 225° |
| 2026-04-29 12:38 | 46.77913 | -71.41098 | 797 ft | 161 kts | 224° |
| 2026-04-29 12:38 | 46.77105 | -71.42236 | 1333 ft | 162 kts | 219° |
| 2026-04-29 12:39 | 46.76043 | -71.42560 | 1850 ft | 165 kts | 160° |
| 2026-04-29 12:39 | 46.75276 | -71.41376 | 2354 ft | 168 kts | 110° |
| 2026-04-29 12:39 | 46.75288 | -71.39694 | 2877 ft | 171 kts | 65° |
| 2026-04-29 12:39 | 46.76104 | -71.38456 | 3403 ft | 173 kts | 33° |
| 2026-04-29 12:40 | 46.77118 | -71.37502 | 3934 ft | 174 kts | 32° |
| 2026-04-29 12:40 | 46.78150 | -71.36547 | 4468 ft | 176 kts | 32° |
| 2026-04-29 12:40 | 46.79190 | -71.35592 | 4996 ft | 177 kts | 32° |
| 2026-04-29 12:40 | 46.80241 | -71.34619 | 5488 ft | 180 kts | 32° |
| 2026-04-29 12:41 | 46.81300 | -71.33631 | 6008 ft | 181 kts | 32° |
| 2026-04-29 12:41 | 46.82366 | -71.32631 | 6526 ft | 183 kts | 32° |
| 2026-04-29 12:41 | 46.83422 | -71.31639 | 7030 ft | 184 kts | 32° |
| 2026-04-29 12:41 | 46.84498 | -71.30624 | 7535 ft | 185 kts | 33° |
| 2026-04-29 12:42 | 46.85579 | -71.29604 | 8037 ft | 186 kts | 32° |
| 2026-04-29 12:42 | 46.86676 | -71.28580 | 8535 ft | 188 kts | 29° |
| 2026-04-29 12:42 | 46.87925 | -71.28122 | 9023 ft | 188 kts | 356° |
| 2026-04-29 12:42 | 46.89238 | -71.28200 | 9496 ft | 190 kts | 359° |
| 2026-04-29 12:43 | 46.90563 | -71.28163 | 9981 ft | 191 kts | 1° |
| 2026-04-29 12:43 | 46.91899 | -71.28124 | 10462 ft | 193 kts | 0° |
| 2026-04-29 12:43 | 46.93242 | -71.28094 | 10943 ft | 194 kts | 0° |
| 2026-04-29 12:43 | 46.94597 | -71.28075 | 11443 ft | 195 kts | 360° |
| 2026-04-29 12:44 | 46.95962 | -71.28058 | 11945 ft | 197 kts | 360° |
| 2026-04-29 12:44 | 46.97338 | -71.28044 | 12446 ft | 198 kts | 360° |
| 2026-04-29 12:44 | 46.98725 | -71.28029 | 12949 ft | 200 kts | 360° |
| 2026-04-29 12:44 | 47.00106 | -71.28016 | 13426 ft | 202 kts | 360° |
| 2026-04-29 12:45 | 47.01512 | -71.28001 | 13910 ft | 203 kts | 360° |
| 2026-04-29 12:45 | 47.01604 | -71.28000 | 13942 ft | 203 kts | 360° |
| 2026-04-29 12:45 | 47.02638 | -71.27989 | 14290 ft | 204 kts | 360° |
| 2026-04-29 12:45 | 47.03969 | -71.27976 | 14731 ft | 206 kts | 360° |
| 2026-04-29 12:46 | 47.05406 | -71.27959 | 15193 ft | 207 kts | 360° |
| 2026-04-29 12:46 | 47.06855 | -71.27945 | 15645 ft | 209 kts | 360° |
| 2026-04-29 12:46 | 47.08316 | -71.27928 | 16089 ft | 210 kts | 360° |
| 2026-04-29 12:46 | 47.09787 | -71.27914 | 16524 ft | 212 kts | 360° |
| 2026-04-29 12:47 | 47.11270 | -71.27898 | 16924 ft | 216 kts | 360° |
| 2026-04-29 12:47 | 47.12839 | -71.27881 | 16972 ft | 235 kts | 360° |
| 2026-04-29 12:47 | 47.12972 | -71.27879 | 16976 ft | 236 kts | 0° |
| 2026-04-29 12:47 | 47.14674 | -71.27860 | 16985 ft | 252 kts | 0° |
| 2026-04-29 12:48 | 47.16463 | -71.27838 | 16993 ft | 263 kts | 0° |
| 2026-04-29 12:48 | 47.18334 | -71.27817 | 16997 ft | 273 kts | 0° |
| 2026-04-29 12:48 | 47.20255 | -71.27796 | 16998 ft | 279 kts | 0° |
| 2026-04-29 12:48 | 47.22219 | -71.27774 | 16998 ft | 284 kts | 0° |
| 2026-04-29 12:49 | 47.24189 | -71.27753 | 16999 ft | 288 kts | 0° |
| 2026-04-29 12:49 | 47.26230 | -71.27729 | 16999 ft | 291 kts | 0° |
| 2026-04-29 12:49 | 47.28233 | -71.27710 | 17000 ft | 293 kts | 360° |
| 2026-04-29 12:49 | 47.30280 | -71.27689 | 16998 ft | 295 kts | 0° |
| 2026-04-29 12:50 | 47.32340 | -71.27664 | 17000 ft | 296 kts | 0° |
| 2026-04-29 12:50 | 47.34405 | -71.27640 | 16999 ft | 297 kts | 0° |
| 2026-04-29 12:50 | 47.36470 | -71.27617 | 17000 ft | 297 kts | 0° |
| 2026-04-29 12:50 | 47.38548 | -71.27595 | 16999 ft | 298 kts | 0° |
| 2026-04-29 12:51 | 47.40626 | -71.27574 | 16998 ft | 298 kts | 0° |
| 2026-04-29 12:51 | 47.42700 | -71.27552 | 16999 ft | 298 kts | 0° |
| 2026-04-29 12:51 | 47.44750 | -71.27531 | 17000 ft | 298 kts | 0° |
| 2026-04-29 12:51 | 47.46831 | -71.27508 | 16999 ft | 299 kts | 0° |
| 2026-04-29 12:52 | 47.48909 | -71.27487 | 17000 ft | 299 kts | 0° |
| 2026-04-29 12:52 | 47.50986 | -71.27464 | 17000 ft | 299 kts | 0° |
| 2026-04-29 12:52 | 47.53067 | -71.27443 | 17001 ft | 299 kts | 0° |
| 2026-04-29 12:52 | 47.55144 | -71.27420 | 16999 ft | 299 kts | 0° |
| 2026-04-29 12:53 | 47.57224 | -71.27398 | 17000 ft | 299 kts | 0° |
| 2026-04-29 12:53 | 47.59307 | -71.27376 | 17000 ft | 299 kts | 0° |
| 2026-04-29 12:53 | 47.61386 | -71.27354 | 17000 ft | 299 kts | 0° |
| 2026-04-29 12:53 | 47.63471 | -71.27333 | 17000 ft | 299 kts | 0° |
| 2026-04-29 12:54 | 47.65552 | -71.27310 | 17001 ft | 299 kts | 0° |
| 2026-04-29 12:54 | 47.67637 | -71.27287 | 16938 ft | 301 kts | 0° |
| 2026-04-29 12:54 | 47.69735 | -71.27264 | 16681 ft | 309 kts | 0° |
| 2026-04-29 12:54 | 47.71923 | -71.27239 | 16279 ft | 319 kts | 0° |
| 2026-04-29 12:55 | 47.74168 | -71.27211 | 15877 ft | 325 kts | 0° |
| 2026-04-29 12:55 | 47.76447 | -71.27185 | 15479 ft | 329 kts | 0° |
| 2026-04-29 12:55 | 47.78752 | -71.27156 | 15077 ft | 332 kts | 0° |
| 2026-04-29 12:55 | 47.81075 | -71.27130 | 14675 ft | 334 kts | 0° |
| 2026-04-29 12:56 | 47.83366 | -71.27107 | 14274 ft | 323 kts | 0° |
| 2026-04-29 12:56 | 47.85572 | -71.27117 | 13872 ft | 311 kts | 358° |
| 2026-04-29 12:56 | 47.87701 | -71.27201 | 13469 ft | 302 kts | 358° |
| 2026-04-29 12:56 | 47.89774 | -71.27305 | 13067 ft | 295 kts | 358° |
| 2026-04-29 12:57 | 47.91788 | -71.27420 | 12670 ft | 294 kts | 358° |
| 2026-04-29 12:57 | 47.93843 | -71.27530 | 12274 ft | 297 kts | 358° |
| 2026-04-29 12:57 | 47.95916 | -71.27632 | 11877 ft | 298 kts | 358° |
| 2026-04-29 12:58 | 47.96694 | -71.27670 | 11724 ft | 298 kts | 358° |
| 2026-04-29 12:58 | 47.98771 | -71.27767 | 11319 ft | 298 kts | 358° |
| 2026-04-29 12:58 | 48.00848 | -71.27867 | 10920 ft | 298 kts | 358° |
| 2026-04-29 12:58 | 48.02923 | -71.27966 | 10517 ft | 298 kts | 358° |
| 2026-04-29 12:59 | 48.04993 | -71.28065 | 10114 ft | 297 kts | 358° |
| 2026-04-29 12:59 | 48.07028 | -71.28172 | 9719 ft | 296 kts | 358° |
| 2026-04-29 12:59 | 48.09087 | -71.28268 | 9316 ft | 295 kts | 358° |
| 2026-04-29 12:59 | 48.11134 | -71.28367 | 8915 ft | 294 kts | 358° |
| 2026-04-29 13:00 | 48.13163 | -71.28463 | 8516 ft | 293 kts | 358° |
| 2026-04-29 13:00 | 48.15204 | -71.28559 | 8115 ft | 292 kts | 358° |
| 2026-04-29 13:00 | 48.17235 | -71.28657 | 7713 ft | 291 kts | 358° |
| 2026-04-29 13:00 | 48.19225 | -71.28748 | 7315 ft | 289 kts | 358° |
| 2026-04-29 13:01 | 48.21236 | -71.28844 | 6924 ft | 288 kts | 358° |
| 2026-04-29 13:01 | 48.23236 | -71.28938 | 6513 ft | 287 kts | 358° |
| 2026-04-29 13:01 | 48.25229 | -71.29031 | 6106 ft | 286 kts | 358° |
| 2026-04-29 13:01 | 48.27212 | -71.29127 | 5712 ft | 285 kts | 358° |
| 2026-04-29 13:02 | 48.29193 | -71.29218 | 5310 ft | 284 kts | 358° |
| 2026-04-29 13:02 | 48.31147 | -71.29323 | 4911 ft | 278 kts | 357° |
| 2026-04-29 13:02 | 48.33065 | -71.29424 | 4650 ft | 269 kts | 358° |
| 2026-04-29 13:02 | 48.34886 | -71.29513 | 4617 ft | 255 kts | 358° |
| 2026-04-29 13:03 | 48.36639 | -71.29599 | 4652 ft | 251 kts | 353° |
| 2026-04-29 13:03 | 48.38355 | -71.29686 | 4601 ft | 248 kts | 354° |
| 2026-04-29 13:03 | 48.40067 | -71.29767 | 4582 ft | 245 kts | 353° |
| 2026-04-29 13:03 | 48.41773 | -71.29848 | 4494 ft | 246 kts | 354° |
| 2026-04-29 13:04 | 48.43496 | -71.29926 | 4342 ft | 249 kts | 354° |
| 2026-04-29 13:04 | 48.45237 | -71.30011 | 4169 ft | 250 kts | 353° |
| 2026-04-29 13:04 | 48.46976 | -71.30098 | 4013 ft | 250 kts | 354° |
| 2026-04-29 13:04 | 48.48720 | -71.30183 | 3817 ft | 253 kts | 354° |
| 2026-04-29 13:05 | 48.50511 | -71.30044 | 3440 ft | 263 kts | 10° |
| 2026-04-29 13:05 | 48.52187 | -71.28969 | 3043 ft | 261 kts | 34° |
| 2026-04-29 13:05 | 48.53485 | -71.27107 | 2593 ft | 255 kts | 56° |
| 2026-04-29 13:05 | 48.54277 | -71.24788 | 2261 ft | 245 kts | 78° |
| 2026-04-29 13:06 | 48.54326 | -71.22353 | 2046 ft | 223 kts | 102° |
| 2026-04-29 13:06 | 48.54330 | -71.20076 | 2033 ft | 216 kts | 85° |
| 2026-04-29 13:06 | 48.54624 | -71.17873 | 2023 ft | 212 kts | 83° |
| 2026-04-29 13:06 | 48.54892 | -71.15704 | 2042 ft | 208 kts | 85° |
| 2026-04-29 13:07 | 48.55248 | -71.13599 | 1979 ft | 211 kts | 69° |
| 2026-04-29 13:07 | 48.55867 | -71.11615 | 1694 ft | 200 kts | 77° |
| 2026-04-29 13:07 | 48.55916 | -71.09676 | 1422 ft | 172 kts | 106° |
| 2026-04-29 13:07 | 48.55560 | -71.08185 | 1309 ft | 133 kts | 117° |
| 2026-04-29 13:08 | 48.55267 | -71.07402 | 1212 ft | 131 kts | 122° |
| 2026-04-29 13:08 | 48.54401 | -71.06015 | 970 ft | 142 kts | 143° |
| 2026-04-29 13:08 | 48.53511 | -71.05347 | 772 ft | 144 kts | 158° |
| 2026-04-29 13:08 | 48.52609 | -71.04968 | 573 ft | 120 kts | 161° |
| 2026-04-29 13:09 | 48.52152 | -71.04767 | 548 ft | 71 kts | 167° |
| 2026-04-29 13:09 | 48.51888 | -71.04657 | 547 ft | 33 kts | 165° |
| 2026-04-29 13:09 | 48.51711 | -71.04597 | 548 ft | 20 kts | 167° |
| 2026-04-29 13:09 | 48.51628 | -71.04683 | 549 ft | 18 kts | 249° |
| 2026-04-29 13:10 | 48.51567 | -71.04846 | 549 ft | 18 kts | 236° |
| 2026-04-29 13:10 | 48.51527 | -71.05010 | 549 ft | 16 kts | 285° |
| 2026-04-29 13:10 | 48.51550 | -71.05161 | 549 ft | 15 kts | 283° |
| 2026-04-29 13:10 | 48.51563 | -71.05279 | 549 ft | 3 kts | 185° |
| 2026-04-29 13:11 | 48.51551 | -71.05274 | 549 ft | 3 kts | 166° |
| 2026-04-29 13:11 | 48.51547 | -71.05286 | 549 ft | 0 kts | 283° |